sensor_id;sensor_type;location;lat;lon;timestamp;pressure;altitude;pressure_sealevel;temperature;humidity
13029;BME280;6581;42.662;23.402;2022-08-01T00:02:32;95213.31;;;20.83;62.03
13029;BME280;6581;42.662;23.402;2022-08-01T00:04:59;95217.69;;;20.77;62.38
13029;BME280;6581;42.662;23.402;2022-08-01T00:07:28;95215.16;;;20.86;62.44
13029;BME280;6581;42.662;23.402;2022-08-01T00:09:55;95223.31;;;20.83;66.46
13029;BME280;6581;42.662;23.402;2022-08-01T00:12:22;95218.69;;;20.38;69.57
13029;BME280;6581;42.662;23.402;2022-08-01T00:14:49;95220.00;;;20.14;71.50
13029;BME280;6581;42.662;23.402;2022-08-01T00:17:17;95225.44;;;19.94;72.96
13029;BME280;6581;42.662;23.402;2022-08-01T00:19:45;95219.38;;;19.74;73.98
13029;BME280;6581;42.662;23.402;2022-08-01T00:22:13;95227.22;;;19.48;75.37
13029;BME280;6581;42.662;23.402;2022-08-01T00:24:40;95222.88;;;19.35;76.10
13029;BME280;6581;42.662;23.402;2022-08-01T00:27:07;95226.59;;;19.21;76.72
13029;BME280;6581;42.662;23.402;2022-08-01T00:29:34;95237.56;;;19.11;77.07
13029;BME280;6581;42.662;23.402;2022-08-01T00:32:02;95230.78;;;19.02;77.68
13029;BME280;6581;42.662;23.402;2022-08-01T00:34:29;95227.69;;;19.04;78.02
13029;BME280;6581;42.662;23.402;2022-08-01T00:36:58;95229.50;;;18.91;78.87
13029;BME280;6581;42.662;23.402;2022-08-01T00:39:26;95226.13;;;18.87;78.78
13029;BME280;6581;42.662;23.402;2022-08-01T00:41:53;95227.63;;;18.88;79.45
13029;BME280;6581;42.662;23.402;2022-08-01T00:44:20;95231.59;;;18.80;79.49
13029;BME280;6581;42.662;23.402;2022-08-01T00:46:48;95230.97;;;18.72;79.72
13029;BME280;6581;42.662;23.402;2022-08-01T00:49:15;95232.56;;;18.70;79.31
13029;BME280;6581;42.662;23.402;2022-08-01T00:51:42;95226.47;;;18.66;79.27
13029;BME280;6581;42.662;23.402;2022-08-01T00:54:11;95222.16;;;18.72;79.35
13029;BME280;6581;42.662;23.402;2022-08-01T00:56:38;95219.84;;;18.74;79.35
13029;BME280;6581;42.662;23.402;2022-08-01T00:59:06;95223.28;;;18.74;78.92
13029;BME280;6581;42.662;23.402;2022-08-01T01:01:34;95213.16;;;18.82;78.70
13029;BME280;6581;42.662;23.402;2022-08-01T01:04:02;95215.09;;;18.81;77.59
13029;BME280;6581;42.662;23.402;2022-08-01T01:06:39;95208.88;;;18.84;77.24
13029;BME280;6581;42.662;23.402;2022-08-01T01:09:20;95205.44;;;18.84;77.60
13029;BME280;6581;42.662;23.402;2022-08-01T01:11:58;95201.38;;;18.76;77.16
13029;BME280;6581;42.662;23.402;2022-08-01T01:14:34;95198.69;;;18.76;77.04
13029;BME280;6581;42.662;23.402;2022-08-01T01:17:06;95204.13;;;18.72;77.27
13029;BME280;6581;42.662;23.402;2022-08-01T01:19:39;95201.16;;;18.67;77.44
13029;BME280;6581;42.662;23.402;2022-08-01T01:22:19;95203.38;;;18.72;77.38
13029;BME280;6581;42.662;23.402;2022-08-01T01:25:02;95202.22;;;18.73;78.42
13029;BME280;6581;42.662;23.402;2022-08-01T01:27:39;95202.44;;;18.82;79.28
13029;BME280;6581;42.662;23.402;2022-08-01T01:30:11;95199.75;;;18.82;80.34
13029;BME280;6581;42.662;23.402;2022-08-01T01:32:43;95195.22;;;18.79;79.91
13029;BME280;6581;42.662;23.402;2022-08-01T01:35:17;95179.84;;;18.79;80.74
13029;BME280;6581;42.662;23.402;2022-08-01T01:37:48;95195.81;;;18.67;80.59
13029;BME280;6581;42.662;23.402;2022-08-01T01:40:17;95190.38;;;18.47;81.76
13029;BME280;6581;42.662;23.402;2022-08-01T01:42:47;95188.78;;;18.53;82.36
13029;BME280;6581;42.662;23.402;2022-08-01T01:45:17;95187.22;;;18.52;82.78
13029;BME280;6581;42.662;23.402;2022-08-01T01:47:45;95182.53;;;18.59;82.96
13029;BME280;6581;42.662;23.402;2022-08-01T01:50:13;95184.16;;;18.53;83.98
13029;BME280;6581;42.662;23.402;2022-08-01T01:53:07;95182.63;;;18.52;83.57
13029;BME280;6581;42.662;23.402;2022-08-01T01:55:37;95173.47;;;18.50;83.57
13029;BME280;6581;42.662;23.402;2022-08-01T01:58:07;95177.69;;;18.51;82.54
13029;BME280;6581;42.662;23.402;2022-08-01T02:00:37;95175.09;;;18.44;84.24
13029;BME280;6581;42.662;23.402;2022-08-01T02:03:07;95174.34;;;18.43;85.03
13029;BME280;6581;42.662;23.402;2022-08-01T02:05:36;95173.31;;;18.37;84.50
13029;BME280;6581;42.662;23.402;2022-08-01T02:08:05;95165.59;;;18.39;84.84
13029;BME280;6581;42.662;23.402;2022-08-01T02:10:35;95164.63;;;18.30;85.37
13029;BME280;6581;42.662;23.402;2022-08-01T02:13:04;95168.47;;;18.29;85.46
13029;BME280;6581;42.662;23.402;2022-08-01T02:15:33;95167.38;;;18.26;85.46
13029;BME280;6581;42.662;23.402;2022-08-01T02:18:06;95171.63;;;18.24;85.59
13029;BME280;6581;42.662;23.402;2022-08-01T02:20:37;95173.50;;;18.27;85.72
13029;BME280;6581;42.662;23.402;2022-08-01T02:23:07;95167.16;;;18.17;86.08
13029;BME280;6581;42.662;23.402;2022-08-01T02:25:40;95169.88;;;18.13;85.98
13029;BME280;6581;42.662;23.402;2022-08-01T02:28:13;95164.94;;;18.12;87.42
13029;BME280;6581;42.662;23.402;2022-08-01T02:30:44;95161.94;;;18.06;87.76
13029;BME280;6581;42.662;23.402;2022-08-01T02:33:17;95165.84;;;18.02;87.22
13029;BME280;6581;42.662;23.402;2022-08-01T02:35:48;95165.50;;;18.00;85.08
13029;BME280;6581;42.662;23.402;2022-08-01T02:38:43;95173.78;;;17.86;85.85
13029;BME280;6581;42.662;23.402;2022-08-01T02:41:19;95179.19;;;17.82;85.31
13029;BME280;6581;42.662;23.402;2022-08-01T02:43:50;95173.06;;;17.82;84.50
13029;BME280;6581;42.662;23.402;2022-08-01T02:46:23;95177.69;;;17.81;85.44
13029;BME280;6581;42.662;23.402;2022-08-01T02:48:56;95181.19;;;17.75;82.68
13029;BME280;6581;42.662;23.402;2022-08-01T02:51:26;95171.38;;;17.68;83.14
13029;BME280;6581;42.662;23.402;2022-08-01T02:53:56;95167.94;;;17.67;84.93
13029;BME280;6581;42.662;23.402;2022-08-01T02:56:25;95166.41;;;17.66;85.75
13029;BME280;6581;42.662;23.402;2022-08-01T02:59:02;95168.38;;;17.62;84.79
13029;BME280;6581;42.662;23.402;2022-08-01T03:01:32;95178.72;;;17.60;84.22
13029;BME280;6581;42.662;23.402;2022-08-01T03:04:03;95172.34;;;17.51;85.29
13029;BME280;6581;42.662;23.402;2022-08-01T03:06:31;95172.34;;;17.51;86.65
13029;BME280;6581;42.662;23.402;2022-08-01T03:09:00;95175.44;;;17.49;87.49
13029;BME280;6581;42.662;23.402;2022-08-01T03:11:29;95169.75;;;17.44;88.50
13029;BME280;6581;42.662;23.402;2022-08-01T03:13:59;95176.59;;;17.48;88.76
13029;BME280;6581;42.662;23.402;2022-08-01T03:16:54;95166.78;;;17.38;90.49
13029;BME280;6581;42.662;23.402;2022-08-01T03:19:25;95172.56;;;17.33;91.21
13029;BME280;6581;42.662;23.402;2022-08-01T03:21:55;95171.09;;;17.28;91.65
13029;BME280;6581;42.662;23.402;2022-08-01T03:24:25;95176.00;;;17.34;91.48
13029;BME280;6581;42.662;23.402;2022-08-01T03:26:56;95182.25;;;17.27;91.62
13029;BME280;6581;42.662;23.402;2022-08-01T03:29:26;95176.88;;;17.27;92.73
13029;BME280;6581;42.662;23.402;2022-08-01T03:31:56;95183.00;;;17.27;92.93
13029;BME280;6581;42.662;23.402;2022-08-01T03:34:26;95178.28;;;17.35;92.03
13029;BME280;6581;42.662;23.402;2022-08-01T03:36:56;95175.63;;;17.35;91.83
13029;BME280;6581;42.662;23.402;2022-08-01T03:39:31;95182.84;;;17.38;92.51
13029;BME280;6581;42.662;23.402;2022-08-01T03:42:05;95187.44;;;17.38;92.52
13029;BME280;6581;42.662;23.402;2022-08-01T03:44:35;95191.56;;;17.42;92.18
13029;BME280;6581;42.662;23.402;2022-08-01T03:47:07;95191.50;;;17.49;91.54
13029;BME280;6581;42.662;23.402;2022-08-01T03:49:41;95194.19;;;17.49;91.14
13029;BME280;6581;42.662;23.402;2022-08-01T03:52:10;95181.94;;;17.48;84.32
13029;BME280;6581;42.662;23.402;2022-08-01T03:54:42;95191.94;;;17.44;79.43
13029;BME280;6581;42.662;23.402;2022-08-01T03:57:12;95188.41;;;17.51;76.49
13029;BME280;6581;42.662;23.402;2022-08-01T03:59:40;95193.81;;;17.47;76.46
13029;BME280;6581;42.662;23.402;2022-08-01T04:02:08;95190.28;;;17.54;75.58
13029;BME280;6581;42.662;23.402;2022-08-01T04:04:37;95189.91;;;17.52;75.23
13029;BME280;6581;42.662;23.402;2022-08-01T04:07:05;95195.28;;;17.82;85.28
13029;BME280;6581;42.662;23.402;2022-08-01T04:09:34;95196.38;;;17.85;84.41
13029;BME280;6581;42.662;23.402;2022-08-01T04:12:02;95195.75;;;18.00;79.87
13029;BME280;6581;42.662;23.402;2022-08-01T04:14:30;95200.22;;;18.07;79.86
13029;BME280;6581;42.662;23.402;2022-08-01T04:16:57;95198.94;;;18.15;79.33
13029;BME280;6581;42.662;23.402;2022-08-01T04:19:24;95189.75;;;18.16;77.75
13029;BME280;6581;42.662;23.402;2022-08-01T04:21:53;95193.44;;;18.26;78.30
13029;BME280;6581;42.662;23.402;2022-08-01T04:24:21;95181.41;;;18.34;78.85
13029;BME280;6581;42.662;23.402;2022-08-01T04:26:50;95192.56;;;18.32;76.66
13029;BME280;6581;42.662;23.402;2022-08-01T04:29:19;95189.63;;;18.46;80.70
13029;BME280;6581;42.662;23.402;2022-08-01T04:31:49;95196.09;;;18.49;77.72
13029;BME280;6581;42.662;23.402;2022-08-01T04:34:21;95195.81;;;18.43;77.03
13029;BME280;6581;42.662;23.402;2022-08-01T04:36:50;95200.84;;;18.41;77.56
13029;BME280;6581;42.662;23.402;2022-08-01T04:39:20;95193.47;;;18.45;77.57
13029;BME280;6581;42.662;23.402;2022-08-01T04:41:53;95179.59;;;18.50;79.01
13029;BME280;6581;42.662;23.402;2022-08-01T04:44:22;95178.94;;;18.43;78.82
13029;BME280;6581;42.662;23.402;2022-08-01T04:46:50;95184.19;;;18.50;78.42
13029;BME280;6581;42.662;23.402;2022-08-01T04:49:20;95180.88;;;18.42;78.82
13029;BME280;6581;42.662;23.402;2022-08-01T04:51:51;95187.44;;;18.41;77.67
13029;BME280;6581;42.662;23.402;2022-08-01T04:54:24;95186.31;;;18.39;77.85
13029;BME280;6581;42.662;23.402;2022-08-01T04:56:54;95181.59;;;18.46;78.51
13029;BME280;6581;42.662;23.402;2022-08-01T04:59:25;95174.97;;;18.54;77.99
13029;BME280;6581;42.662;23.402;2022-08-01T05:02:10;95176.03;;;18.57;78.41
13029;BME280;6581;42.662;23.402;2022-08-01T05:04:38;95171.72;;;18.63;75.99
13029;BME280;6581;42.662;23.402;2022-08-01T05:07:06;95175.50;;;18.66;75.87
13029;BME280;6581;42.662;23.402;2022-08-01T05:09:35;95166.38;;;18.83;75.75
13029;BME280;6581;42.662;23.402;2022-08-01T05:12:04;95176.97;;;18.90;74.16
13029;BME280;6581;42.662;23.402;2022-08-01T05:14:32;95168.84;;;18.93;74.26
13029;BME280;6581;42.662;23.402;2022-08-01T05:17:03;95165.97;;;19.04;73.66
13029;BME280;6581;42.662;23.402;2022-08-01T05:19:31;95168.69;;;19.20;71.99
13029;BME280;6581;42.662;23.402;2022-08-01T05:21:58;95169.22;;;19.31;71.41
13029;BME280;6581;42.662;23.402;2022-08-01T05:24:26;95161.34;;;19.40;70.00
13029;BME280;6581;42.662;23.402;2022-08-01T05:26:56;95168.47;;;19.51;68.60
13029;BME280;6581;42.662;23.402;2022-08-01T05:29:24;95164.78;;;19.61;68.71
13029;BME280;6581;42.662;23.402;2022-08-01T05:31:52;95169.91;;;19.71;68.43
13029;BME280;6581;42.662;23.402;2022-08-01T05:34:20;95169.84;;;19.75;66.24
13029;BME280;6581;42.662;23.402;2022-08-01T05:36:47;95170.16;;;19.77;65.84
13029;BME280;6581;42.662;23.402;2022-08-01T05:39:15;95172.88;;;19.93;65.80
13029;BME280;6581;42.662;23.402;2022-08-01T05:41:42;95171.94;;;20.00;64.13
13029;BME280;6581;42.662;23.402;2022-08-01T05:44:11;95171.28;;;20.12;65.00
13029;BME280;6581;42.662;23.402;2022-08-01T05:46:38;95167.50;;;20.25;63.15
13029;BME280;6581;42.662;23.402;2022-08-01T05:49:05;95175.41;;;20.32;61.27
13029;BME280;6581;42.662;23.402;2022-08-01T05:51:57;95175.56;;;20.42;61.66
13029;BME280;6581;42.662;23.402;2022-08-01T05:54:26;95175.28;;;20.52;60.89
13029;BME280;6581;42.662;23.402;2022-08-01T05:56:53;95185.00;;;20.62;59.47
13029;BME280;6581;42.662;23.402;2022-08-01T05:59:26;95178.88;;;20.62;58.73
13029;BME280;6581;42.662;23.402;2022-08-01T06:01:53;95173.31;;;20.69;57.54
13029;BME280;6581;42.662;23.402;2022-08-01T06:04:21;95168.47;;;20.76;58.24
13029;BME280;6581;42.662;23.402;2022-08-01T06:06:48;95176.63;;;20.89;57.95
13029;BME280;6581;42.662;23.402;2022-08-01T06:09:15;95184.13;;;20.82;57.76
13029;BME280;6581;42.662;23.402;2022-08-01T06:11:43;95175.53;;;20.87;56.67
13029;BME280;6581;42.662;23.402;2022-08-01T06:14:10;95180.63;;;20.97;57.40
13029;BME280;6581;42.662;23.402;2022-08-01T06:16:38;95186.25;;;21.03;56.66
13029;BME280;6581;42.662;23.402;2022-08-01T06:19:05;95181.63;;;21.03;55.62
13029;BME280;6581;42.662;23.402;2022-08-01T06:21:33;95185.19;;;21.13;56.53
13029;BME280;6581;42.662;23.402;2022-08-01T06:24:00;95182.75;;;21.18;55.47
13029;BME280;6581;42.662;23.402;2022-08-01T06:26:27;95174.66;;;21.18;55.54
13029;BME280;6581;42.662;23.402;2022-08-01T06:28:54;95176.53;;;21.21;55.97
13029;BME280;6581;42.662;23.402;2022-08-01T06:31:21;95178.25;;;21.28;54.36
13029;BME280;6581;42.662;23.402;2022-08-01T06:34:14;95175.31;;;21.22;53.56
13029;BME280;6581;42.662;23.402;2022-08-01T06:36:41;95167.16;;;21.39;54.47
13029;BME280;6581;42.662;23.402;2022-08-01T06:39:33;95168.75;;;21.36;53.04
13029;BME280;6581;42.662;23.402;2022-08-01T06:42:00;95175.44;;;21.32;52.72
13029;BME280;6581;42.662;23.402;2022-08-01T06:44:27;95174.78;;;21.28;51.67
13029;BME280;6581;42.662;23.402;2022-08-01T06:46:54;95165.75;;;21.34;52.35
13029;BME280;6581;42.662;23.402;2022-08-01T06:49:25;95164.78;;;21.41;51.88
13029;BME280;6581;42.662;23.402;2022-08-01T06:51:52;95160.78;;;21.45;51.52
13029;BME280;6581;42.662;23.402;2022-08-01T06:54:19;95152.28;;;21.47;51.01
13029;BME280;6581;42.662;23.402;2022-08-01T06:56:46;95143.56;;;21.55;51.84
13029;BME280;6581;42.662;23.402;2022-08-01T06:59:14;95145.19;;;21.65;50.86
13029;BME280;6581;42.662;23.402;2022-08-01T07:01:42;95154.25;;;21.72;51.57
13029;BME280;6581;42.662;23.402;2022-08-01T07:04:35;95137.19;;;21.75;51.39
13029;BME280;6581;42.662;23.402;2022-08-01T07:07:03;95142.34;;;21.82;50.81
13029;BME280;6581;42.662;23.402;2022-08-01T07:09:30;95149.91;;;21.74;51.41
13029;BME280;6581;42.662;23.402;2022-08-01T07:11:57;95147.75;;;21.82;51.86
13029;BME280;6581;42.662;23.402;2022-08-01T07:14:24;95143.09;;;21.82;51.43
13029;BME280;6581;42.662;23.402;2022-08-01T07:16:51;95151.84;;;21.86;51.50
13029;BME280;6581;42.662;23.402;2022-08-01T07:19:45;95156.28;;;22.05;51.88
13029;BME280;6581;42.662;23.402;2022-08-01T07:22:12;95154.19;;;22.57;50.02
13029;BME280;6581;42.662;23.402;2022-08-01T07:24:40;95134.75;;;24.07;46.60
13029;BME280;6581;42.662;23.402;2022-08-01T07:27:08;95150.47;;;25.03;44.42
13029;BME280;6581;42.662;23.402;2022-08-01T07:29:35;95155.94;;;26.20;41.19
13029;BME280;6581;42.662;23.402;2022-08-01T07:32:03;95158.59;;;26.76;37.71
13029;BME280;6581;42.662;23.402;2022-08-01T07:34:31;95149.69;;;27.58;36.00
13029;BME280;6581;42.662;23.402;2022-08-01T07:36:59;95157.47;;;27.65;34.82
13029;BME280;6581;42.662;23.402;2022-08-01T07:39:26;95138.81;;;27.58;35.09
13029;BME280;6581;42.662;23.402;2022-08-01T07:41:54;95146.31;;;27.98;34.95
13029;BME280;6581;42.662;23.402;2022-08-01T07:44:21;95159.53;;;27.70;33.88
13029;BME280;6581;42.662;23.402;2022-08-01T07:46:48;95150.97;;;27.33;34.51
13029;BME280;6581;42.662;23.402;2022-08-01T07:49:15;95159.78;;;26.99;35.25
13029;BME280;6581;42.662;23.402;2022-08-01T07:51:44;95153.84;;;26.86;35.58
13029;BME280;6581;42.662;23.402;2022-08-01T07:54:15;95149.28;;;26.92;35.45
13029;BME280;6581;42.662;23.402;2022-08-01T07:56:42;95148.06;;;27.81;33.85
13029;BME280;6581;42.662;23.402;2022-08-01T07:59:09;95141.38;;;27.82;34.20
13029;BME280;6581;42.662;23.402;2022-08-01T08:01:37;95164.81;;;27.94;33.76
13029;BME280;6581;42.662;23.402;2022-08-01T08:04:04;95153.16;;;26.38;35.89
13029;BME280;6581;42.662;23.402;2022-08-01T08:06:32;95151.63;;;27.28;35.29
13029;BME280;6581;42.662;23.402;2022-08-01T08:09:00;95170.78;;;26.81;35.77
13029;BME280;6581;42.662;23.402;2022-08-01T08:11:29;95162.31;;;26.17;36.67
13029;BME280;6581;42.662;23.402;2022-08-01T08:13:57;95167.22;;;26.51;36.74
13029;BME280;6581;42.662;23.402;2022-08-01T08:16:26;95164.44;;;26.13;37.30
13029;BME280;6581;42.662;23.402;2022-08-01T08:18:54;95161.53;;;25.92;37.97
13029;BME280;6581;42.662;23.402;2022-08-01T08:21:21;95175.41;;;25.85;38.32
13029;BME280;6581;42.662;23.402;2022-08-01T08:24:13;95156.31;;;25.80;38.36
13029;BME280;6581;42.662;23.402;2022-08-01T08:26:51;95143.28;;;25.60;39.03
13029;BME280;6581;42.662;23.402;2022-08-01T08:29:20;95145.19;;;25.69;39.14
13029;BME280;6581;42.662;23.402;2022-08-01T08:31:48;95152.56;;;25.17;40.37
13029;BME280;6581;42.662;23.402;2022-08-01T08:34:16;95142.50;;;25.08;40.37
13029;BME280;6581;42.662;23.402;2022-08-01T08:36:43;95151.06;;;24.98;41.15
13029;BME280;6581;42.662;23.402;2022-08-01T08:39:11;95149.88;;;24.81;41.32
13029;BME280;6581;42.662;23.402;2022-08-01T08:41:38;95170.53;;;24.87;41.76
13029;BME280;6581;42.662;23.402;2022-08-01T08:44:08;95158.91;;;24.68;41.76
13029;BME280;6581;42.662;23.402;2022-08-01T08:46:40;95164.44;;;24.28;40.50
13029;BME280;6581;42.662;23.402;2022-08-01T08:49:08;95155.66;;;24.15;41.55
13029;BME280;6581;42.662;23.402;2022-08-01T08:51:39;95147.44;;;24.19;42.47
13029;BME280;6581;42.662;23.402;2022-08-01T08:54:31;95149.00;;;23.98;40.95
13029;BME280;6581;42.662;23.402;2022-08-01T08:57:00;95148.09;;;23.83;42.59
13029;BME280;6581;42.662;23.402;2022-08-01T08:59:29;95147.94;;;23.87;40.05
13029;BME280;6581;42.662;23.402;2022-08-01T09:01:57;95135.81;;;24.09;41.84
13029;BME280;6581;42.662;23.402;2022-08-01T09:04:25;95147.22;;;24.04;40.84
13029;BME280;6581;42.662;23.402;2022-08-01T09:06:53;95149.31;;;23.91;39.26
13029;BME280;6581;42.662;23.402;2022-08-01T09:09:21;95141.19;;;23.91;39.73
13029;BME280;6581;42.662;23.402;2022-08-01T09:11:50;95138.34;;;23.95;40.45
13029;BME280;6581;42.662;23.402;2022-08-01T09:14:18;95135.97;;;24.15;39.94
13029;BME280;6581;42.662;23.402;2022-08-01T09:17:15;95136.38;;;23.95;41.10
13029;BME280;6581;42.662;23.402;2022-08-01T09:19:44;95141.13;;;24.31;40.53
13029;BME280;6581;42.662;23.402;2022-08-01T09:22:15;95150.63;;;24.36;39.61
13029;BME280;6581;42.662;23.402;2022-08-01T09:24:57;95131.66;;;24.26;40.87
13029;BME280;6581;42.662;23.402;2022-08-01T09:27:24;95131.00;;;24.13;39.93
13029;BME280;6581;42.662;23.402;2022-08-01T09:29:52;95121.69;;;24.14;40.00
13029;BME280;6581;42.662;23.402;2022-08-01T09:32:21;95130.31;;;24.31;39.59
13029;BME280;6581;42.662;23.402;2022-08-01T09:34:48;95118.72;;;24.31;39.23
13029;BME280;6581;42.662;23.402;2022-08-01T09:37:15;95122.00;;;24.16;38.96
13029;BME280;6581;42.662;23.402;2022-08-01T09:39:43;95129.56;;;24.31;38.91
13029;BME280;6581;42.662;23.402;2022-08-01T09:42:23;95119.03;;;24.33;39.71
13029;BME280;6581;42.662;23.402;2022-08-01T09:44:51;95143.41;;;24.42;38.92
13029;BME280;6581;42.662;23.402;2022-08-01T09:47:19;95125.81;;;24.46;38.05
13029;BME280;6581;42.662;23.402;2022-08-01T09:49:56;95116.63;;;24.62;38.90
13029;BME280;6581;42.662;23.402;2022-08-01T09:52:26;95115.41;;;24.72;38.45
13029;BME280;6581;42.662;23.402;2022-08-01T09:54:58;95112.56;;;24.66;37.75
13029;BME280;6581;42.662;23.402;2022-08-01T09:57:26;95105.66;;;24.56;38.26
13029;BME280;6581;42.662;23.402;2022-08-01T09:59:56;95111.97;;;24.53;38.35
13029;BME280;6581;42.662;23.402;2022-08-01T10:02:29;95132.44;;;24.54;38.79
13029;BME280;6581;42.662;23.402;2022-08-01T10:04:59;95122.78;;;24.62;39.45
13029;BME280;6581;42.662;23.402;2022-08-01T10:07:26;95123.09;;;24.55;39.30
13029;BME280;6581;42.662;23.402;2022-08-01T10:09:54;95123.97;;;24.80;39.52
13029;BME280;6581;42.662;23.402;2022-08-01T10:12:22;95133.34;;;24.79;39.09
13029;BME280;6581;42.662;23.402;2022-08-01T10:14:51;95111.97;;;24.90;39.16
13029;BME280;6581;42.662;23.402;2022-08-01T10:17:24;95114.06;;;24.95;39.51
13029;BME280;6581;42.662;23.402;2022-08-01T10:19:52;95105.63;;;25.02;37.14
13029;BME280;6581;42.662;23.402;2022-08-01T10:22:24;95099.75;;;25.03;38.04
13029;BME280;6581;42.662;23.402;2022-08-01T10:24:55;95110.59;;;24.94;38.75
13029;BME280;6581;42.662;23.402;2022-08-01T10:27:23;95106.34;;;25.02;39.97
13029;BME280;6581;42.662;23.402;2022-08-01T10:29:55;95104.28;;;24.97;38.65
13029;BME280;6581;42.662;23.402;2022-08-01T10:32:26;95111.31;;;25.13;39.57
13029;BME280;6581;42.662;23.402;2022-08-01T10:34:54;95108.16;;;25.14;39.47
13029;BME280;6581;42.662;23.402;2022-08-01T10:37:24;95098.56;;;24.95;39.16
13029;BME280;6581;42.662;23.402;2022-08-01T10:39:51;95097.03;;;25.03;39.08
13029;BME280;6581;42.662;23.402;2022-08-01T10:42:19;95088.06;;;25.30;40.61
13029;BME280;6581;42.662;23.402;2022-08-01T10:44:48;95113.31;;;25.45;38.20
13029;BME280;6581;42.662;23.402;2022-08-01T10:47:18;95109.78;;;25.21;38.59
13029;BME280;6581;42.662;23.402;2022-08-01T10:49:51;95092.81;;;25.44;39.46
13029;BME280;6581;42.662;23.402;2022-08-01T10:55:47;95083.50;;;25.45;39.41
13029;BME280;6581;42.662;23.402;2022-08-01T10:58:23;95097.25;;;25.33;38.58
13029;BME280;6581;42.662;23.402;2022-08-01T11:04:09;95078.25;;;24.91;38.06
13029;BME280;6581;42.662;23.402;2022-08-01T11:06:42;95085.56;;;25.08;38.86
13029;BME280;6581;42.662;23.402;2022-08-01T11:09:24;95074.66;;;25.27;39.06
13029;BME280;6581;42.662;23.402;2022-08-01T11:12:00;95056.28;;;25.31;39.26
13029;BME280;6581;42.662;23.402;2022-08-01T11:14:31;95088.63;;;25.43;38.94
13029;BME280;6581;42.662;23.402;2022-08-01T11:17:33;95064.09;;;25.38;38.34
13029;BME280;6581;42.662;23.402;2022-08-01T11:20:04;95066.97;;;25.34;38.66
13029;BME280;6581;42.662;23.402;2022-08-01T11:22:31;95073.44;;;25.37;38.64
13029;BME280;6581;42.662;23.402;2022-08-01T11:24:59;95056.03;;;25.20;39.13
13029;BME280;6581;42.662;23.402;2022-08-01T11:27:30;95079.19;;;25.30;38.89
13029;BME280;6581;42.662;23.402;2022-08-01T11:30:24;95080.78;;;25.45;38.28
13029;BME280;6581;42.662;23.402;2022-08-01T11:32:56;95058.34;;;25.45;39.20
13029;BME280;6581;42.662;23.402;2022-08-01T11:35:24;95059.88;;;25.37;39.05
13029;BME280;6581;42.662;23.402;2022-08-01T11:37:53;95072.44;;;25.25;38.82
13029;BME280;6581;42.662;23.402;2022-08-01T11:40:24;95069.59;;;25.20;39.00
13029;BME280;6581;42.662;23.402;2022-08-01T11:43:18;95073.78;;;25.30;38.90
13029;BME280;6581;42.662;23.402;2022-08-01T11:45:49;95067.28;;;25.27;38.70
13029;BME280;6581;42.662;23.402;2022-08-01T11:48:20;95072.72;;;25.27;38.32
13029;BME280;6581;42.662;23.402;2022-08-01T11:50:49;95068.47;;;25.35;39.22
13029;BME280;6581;42.662;23.402;2022-08-01T11:53:17;95059.94;;;25.61;38.92
13029;BME280;6581;42.662;23.402;2022-08-01T11:55:46;95065.56;;;25.81;38.58
13029;BME280;6581;42.662;23.402;2022-08-01T11:58:20;95060.97;;;25.63;38.06
13029;BME280;6581;42.662;23.402;2022-08-01T12:00:50;95065.28;;;25.79;39.12
13029;BME280;6581;42.662;23.402;2022-08-01T12:03:23;95054.00;;;25.95;38.58
13029;BME280;6581;42.662;23.402;2022-08-01T12:05:52;95051.66;;;25.88;37.82
13029;BME280;6581;42.662;23.402;2022-08-01T12:08:26;95057.47;;;25.95;38.27
13029;BME280;6581;42.662;23.402;2022-08-01T12:10:55;95054.31;;;25.73;37.69
13029;BME280;6581;42.662;23.402;2022-08-01T12:13:23;95055.94;;;25.80;38.43
13029;BME280;6581;42.662;23.402;2022-08-01T12:15:51;95050.63;;;25.62;38.30
13029;BME280;6581;42.662;23.402;2022-08-01T12:18:18;95047.50;;;25.78;39.62
13029;BME280;6581;42.662;23.402;2022-08-01T12:21:12;95050.72;;;25.91;38.24
13029;BME280;6581;42.662;23.402;2022-08-01T12:23:39;95051.72;;;26.02;37.97
13029;BME280;6581;42.662;23.402;2022-08-01T12:26:06;95055.38;;;26.14;38.57
13029;BME280;6581;42.662;23.402;2022-08-01T12:28:40;95062.78;;;26.14;38.05
13029;BME280;6581;42.662;23.402;2022-08-01T12:31:07;95056.72;;;26.19;37.89
13029;BME280;6581;42.662;23.402;2022-08-01T12:33:34;95068.66;;;26.21;37.87
13029;BME280;6581;42.662;23.402;2022-08-01T12:36:01;95055.81;;;26.22;37.41
13029;BME280;6581;42.662;23.402;2022-08-01T12:38:28;95066.03;;;26.27;37.67
13029;BME280;6581;42.662;23.402;2022-08-01T12:41:24;95053.13;;;26.13;37.00
13029;BME280;6581;42.662;23.402;2022-08-01T12:43:54;95045.06;;;26.27;37.21
13029;BME280;6581;42.662;23.402;2022-08-01T12:46:21;95054.34;;;26.35;37.44
13029;BME280;6581;42.662;23.402;2022-08-01T12:48:48;95056.63;;;26.52;37.23
13029;BME280;6581;42.662;23.402;2022-08-01T12:51:16;95059.31;;;26.37;37.13
13029;BME280;6581;42.662;23.402;2022-08-01T12:53:43;95045.47;;;26.35;37.41
13029;BME280;6581;42.662;23.402;2022-08-01T12:56:12;95062.59;;;26.41;37.82
13029;BME280;6581;42.662;23.402;2022-08-01T12:58:40;95045.94;;;26.48;37.28
13029;BME280;6581;42.662;23.402;2022-08-01T13:01:10;95036.84;;;26.51;36.22
13029;BME280;6581;42.662;23.402;2022-08-01T13:03:39;95047.44;;;26.34;36.86
13029;BME280;6581;42.662;23.402;2022-08-01T13:06:11;95039.28;;;26.34;37.45
13029;BME280;6581;42.662;23.402;2022-08-01T13:08:40;95034.25;;;26.57;37.25
13029;BME280;6581;42.662;23.402;2022-08-01T13:11:08;95039.41;;;26.69;36.29
13029;BME280;6581;42.662;23.402;2022-08-01T13:13:41;95040.09;;;26.94;36.91
13029;BME280;6581;42.662;23.402;2022-08-01T13:16:10;95025.75;;;26.93;37.57
13029;BME280;6581;42.662;23.402;2022-08-01T13:18:38;95029.06;;;27.32;38.89
13029;BME280;6581;42.662;23.402;2022-08-01T13:21:11;95033.38;;;27.39;36.72
13029;BME280;6581;42.662;23.402;2022-08-01T13:23:38;95025.88;;;27.48;35.95
13029;BME280;6581;42.662;23.402;2022-08-01T13:26:06;95027.06;;;27.47;36.49